createdAt,value
2018-07-14T00:00:32.805Z,12.10
2018-07-14T00:03:01.045Z,11.57
2018-07-14T00:05:29.263Z,12.77
2018-07-14T00:07:57.514Z,14.30
2018-07-14T00:10:25.758Z,13.70
2018-07-14T00:12:54.003Z,13.90
2018-07-14T00:15:22.209Z,12.40
2018-07-14T00:17:50.430Z,13.43
2018-07-14T00:20:18.664Z,12.60
2018-07-14T00:22:46.889Z,12.80
2018-07-14T00:25:15.234Z,12.47
2018-07-14T00:27:43.434Z,12.90
2018-07-14T00:30:11.678Z,11.17
2018-07-14T00:32:39.924Z,12.37
2018-07-14T00:35:08.145Z,13.10
2018-07-14T00:37:36.367Z,12.67
2018-07-14T00:40:04.619Z,12.77
2018-07-14T00:42:32.835Z,11.37
2018-07-14T00:45:01.026Z,11.20
2018-07-14T00:47:29.445Z,10.80
2018-07-14T00:49:57.627Z,11.03
2018-07-14T00:52:25.850Z,9.90
2018-07-14T00:54:54.046Z,8.70
2018-07-14T00:57:22.313Z,9.90
2018-07-14T00:59:50.526Z,8.93
2018-07-14T01:02:18.729Z,8.83
2018-07-14T01:04:46.921Z,8.60
2018-07-14T01:07:15.162Z,8.50
2018-07-14T01:09:43.383Z,9.43
2018-07-14T01:12:11.628Z,7.73
2018-07-14T01:14:39.832Z,8.03
2018-07-14T01:17:08.081Z,7.80
2018-07-14T01:19:36.304Z,8.90
2018-07-14T01:22:04.509Z,8.17
2018-07-14T01:24:32.725Z,7.70
2018-07-14T01:27:00.929Z,7.90
2018-07-14T01:29:28.933Z,8.60
2018-07-14T01:31:57.447Z,8.70
2018-07-14T01:34:25.653Z,8.00
2018-07-14T01:36:53.876Z,9.37
2018-07-14T01:39:22.081Z,9.17
2018-07-14T01:41:50.314Z,8.10
2018-07-14T01:44:18.503Z,8.47
2018-07-14T01:46:46.715Z,9.50
2018-07-14T01:49:14.926Z,8.43
2018-07-14T01:51:43.161Z,8.10
2018-07-14T01:54:11.653Z,8.63
2018-07-14T01:56:39.838Z,9.37
2018-07-14T01:59:08.070Z,7.70
2018-07-14T02:01:36.290Z,7.83
2018-07-14T02:04:04.514Z,8.40
2018-07-14T02:06:32.734Z,9.00
2018-07-14T02:09:00.964Z,8.00
2018-07-14T02:11:29.159Z,7.93
2018-07-14T02:13:57.366Z,9.37
2018-07-14T02:16:25.398Z,8.63
2018-07-14T02:18:53.610Z,9.63
2018-07-14T02:21:21.809Z,8.37
2018-07-14T02:23:50.019Z,8.43
2018-07-14T02:26:18.202Z,8.80
2018-07-14T02:28:46.410Z,8.63
2018-07-14T02:31:14.389Z,8.10
2018-07-14T02:33:42.594Z,6.80
2018-07-14T02:36:11.031Z,6.40
2018-07-14T02:38:39.249Z,7.63
2018-07-14T02:41:07.446Z,7.43
2018-07-14T02:43:35.680Z,6.80
2018-07-14T02:46:03.912Z,7.33
2018-07-14T02:48:32.140Z,6.50
2018-07-14T02:51:00.330Z,7.40
2018-07-14T02:53:28.547Z,7.13
2018-07-14T02:55:56.750Z,8.10
2018-07-14T02:58:24.955Z,7.53
2018-07-14T03:00:53.250Z,6.77
2018-07-14T03:03:21.454Z,7.73
2018-07-14T03:05:49.683Z,7.20
2018-07-14T03:08:17.885Z,7.40
2018-07-14T03:10:46.085Z,7.90
2018-07-14T03:13:14.286Z,8.00
2018-07-14T03:15:42.502Z,8.00
2018-07-14T03:18:10.788Z,8.20
2018-07-14T03:20:39.030Z,8.70
2018-07-14T03:23:07.461Z,9.30
2018-07-14T03:25:35.719Z,8.40
2018-07-14T03:28:03.930Z,9.53
2018-07-14T03:30:32.139Z,9.90
2018-07-14T03:33:00.362Z,9.80
2018-07-14T03:35:28.569Z,9.00
2018-07-14T03:37:56.774Z,10.20
2018-07-14T03:40:25.018Z,8.73
2018-07-14T03:42:53.221Z,9.07
2018-07-14T03:45:21.441Z,7.40
2018-07-14T03:47:49.661Z,6.77
2018-07-14T03:50:17.904Z,8.40
2018-07-14T03:52:46.159Z,8.00
2018-07-14T03:55:14.362Z,7.03
2018-07-14T03:57:42.603Z,7.00
2018-07-14T04:00:10.786Z,7.60
2018-07-14T04:02:38.989Z,8.37
2018-07-14T04:05:07.301Z,7.80
2018-07-14T04:07:35.510Z,7.73
2018-07-14T04:10:03.717Z,7.57
2018-07-14T04:12:32.078Z,7.80
2018-07-14T04:15:00.297Z,7.17
2018-07-14T04:17:28.480Z,8.17
2018-07-14T04:19:56.672Z,9.23
2018-07-14T04:22:24.889Z,9.20
2018-07-14T04:24:53.112Z,7.63
2018-07-14T04:27:21.565Z,6.87
2018-07-14T04:29:49.801Z,7.20
2018-07-14T04:32:18.025Z,6.80
2018-07-14T04:34:46.240Z,7.43
2018-07-14T04:37:14.501Z,7.40
2018-07-14T04:39:42.688Z,6.93
2018-07-14T04:42:10.890Z,6.67
2018-07-14T04:44:38.842Z,5.83
2018-07-14T04:47:07.037Z,5.40
2018-07-14T04:49:35.485Z,6.07
2018-07-14T04:52:03.724Z,5.90
2018-07-14T04:54:32.013Z,5.47
2018-07-14T04:57:00.254Z,5.83
2018-07-14T04:59:28.477Z,5.40
2018-07-14T05:01:56.666Z,5.87
2018-07-14T05:04:24.891Z,5.47
2018-07-14T05:06:53.090Z,5.70
2018-07-14T05:09:21.313Z,6.03
2018-07-14T05:11:49.665Z,6.17
2018-07-14T05:14:17.909Z,6.20
2018-07-14T05:16:46.093Z,5.60
2018-07-14T05:19:14.290Z,5.80
2018-07-14T05:21:42.502Z,6.17
2018-07-14T05:24:10.718Z,6.33
2018-07-14T05:26:38.922Z,5.70
2018-07-14T05:29:07.165Z,6.00
2018-07-14T05:31:35.381Z,6.13
2018-07-14T05:34:03.428Z,6.00
2018-07-14T05:36:31.646Z,6.47
2018-07-14T05:38:59.876Z,5.90
2018-07-14T05:41:28.128Z,6.60
2018-07-14T05:43:56.416Z,6.03
2018-07-14T05:46:24.297Z,5.23
2018-07-14T05:48:52.514Z,6.00
2018-07-14T05:51:20.714Z,5.83
2018-07-14T05:53:48.907Z,4.90
2018-07-14T05:56:17.387Z,5.97
2018-07-14T05:58:45.590Z,5.90
2018-07-14T06:01:13.822Z,5.80
2018-07-14T06:03:42.029Z,5.80
2018-07-14T06:06:10.233Z,6.17
2018-07-14T06:08:38.207Z,6.10
2018-07-14T06:11:06.433Z,6.13
2018-07-14T06:13:34.627Z,5.70
2018-07-14T06:16:02.825Z,5.40
2018-07-14T06:18:30.785Z,6.50
2018-07-14T06:20:59.026Z,5.60
2018-07-14T06:23:27.229Z,6.17
2018-07-14T06:25:55.467Z,6.60
2018-07-14T06:28:23.685Z,6.10
2018-07-14T06:30:51.909Z,6.23
2018-07-14T06:33:20.128Z,5.00
2018-07-14T06:35:48.338Z,6.10
2018-07-14T06:38:16.579Z,6.43
2018-07-14T06:40:44.801Z,5.50
2018-07-14T06:43:13.001Z,5.57
2018-07-14T06:45:41.219Z,6.10
2018-07-14T06:48:09.185Z,5.63
2018-07-14T06:50:37.373Z,5.33
2018-07-14T06:53:05.581Z,6.93
2018-07-14T06:55:33.793Z,5.60
2018-07-14T06:58:01.970Z,4.80
2018-07-14T07:00:30.225Z,5.27
2018-07-14T07:02:58.699Z,5.43
2018-07-14T07:05:26.949Z,5.33
2018-07-14T07:07:55.149Z,5.10
2018-07-14T07:10:23.389Z,5.30
2018-07-14T07:12:51.621Z,5.50
2018-07-14T07:15:19.850Z,5.10
2018-07-14T07:17:48.042Z,5.40
2018-07-14T07:20:16.267Z,5.00
2018-07-14T07:22:44.486Z,5.20
2018-07-14T07:25:12.701Z,5.30
2018-07-14T07:27:40.913Z,5.17
2018-07-14T07:30:09.102Z,5.00
2018-07-14T07:32:37.325Z,6.17
2018-07-14T07:35:05.549Z,4.63
2018-07-14T07:37:33.871Z,4.67
2018-07-14T07:40:02.110Z,5.90
2018-07-14T07:42:30.305Z,4.63
2018-07-14T07:44:58.486Z,4.93
2018-07-14T07:47:26.697Z,5.30
2018-07-14T07:49:54.927Z,4.90
2018-07-14T07:52:23.136Z,3.77
2018-07-14T07:54:51.338Z,4.83
2018-07-14T07:57:19.527Z,4.70
2018-07-14T07:59:47.743Z,4.60
2018-07-14T08:02:15.937Z,4.77
2018-07-14T08:04:44.147Z,4.83
2018-07-14T08:07:12.362Z,3.90
2018-07-14T08:09:40.601Z,4.00
2018-07-14T08:12:08.805Z,4.23
2018-07-14T08:14:37.069Z,4.83
2018-07-14T08:17:05.280Z,4.37
2018-07-14T08:19:33.473Z,4.43
2018-07-14T08:22:01.698Z,5.17
2018-07-14T08:24:29.904Z,4.37
2018-07-14T08:26:57.878Z,4.10
2018-07-14T08:29:26.091Z,4.63
2018-07-14T08:31:54.478Z,4.60
2018-07-14T08:34:22.698Z,5.17
2018-07-14T08:36:50.899Z,5.10
2018-07-14T08:39:19.122Z,5.40
2018-07-14T08:41:47.325Z,4.53
2018-07-14T08:44:15.317Z,5.20
2018-07-14T08:46:43.538Z,4.97
2018-07-14T08:49:11.862Z,4.60
2018-07-14T08:51:39.845Z,6.60
2018-07-14T08:54:08.083Z,4.30
2018-07-14T08:56:36.337Z,4.50
2018-07-14T08:59:04.595Z,5.00
2018-07-14T09:01:32.785Z,4.70
2018-07-14T09:04:00.977Z,5.20
2018-07-14T09:06:29.219Z,4.80
2018-07-14T09:08:57.419Z,4.60
2018-07-14T09:11:25.660Z,4.90
2018-07-14T09:13:53.926Z,5.37
2018-07-14T09:16:22.702Z,5.17
2018-07-14T09:18:50.910Z,4.80
2018-07-14T09:21:19.137Z,4.73
2018-07-14T09:23:47.385Z,4.90
2018-07-14T09:26:15.629Z,4.37
2018-07-14T09:28:43.850Z,4.83
2018-07-14T09:31:12.061Z,4.67
2018-07-14T09:33:40.432Z,5.10
2018-07-14T09:36:08.672Z,5.10
2018-07-14T09:38:37.057Z,4.60
2018-07-14T09:41:05.255Z,4.40
2018-07-14T09:43:33.525Z,5.43
2018-07-14T09:46:01.737Z,5.27
2018-07-14T09:48:29.960Z,4.83
2018-07-14T09:50:58.160Z,5.10
2018-07-14T09:53:26.412Z,5.20
2018-07-14T09:55:54.627Z,4.80
2018-07-14T09:58:22.848Z,4.47
2018-07-14T10:00:56.524Z,4.33
2018-07-14T10:03:24.842Z,4.67
2018-07-14T10:05:52.977Z,4.50
2018-07-14T10:08:21.192Z,5.27
2018-07-14T10:10:49.465Z,4.60
2018-07-14T10:13:17.772Z,4.93
2018-07-14T10:15:45.889Z,4.63
2018-07-14T10:18:14.146Z,6.37
2018-07-14T10:20:42.426Z,4.90
2018-07-14T10:23:10.957Z,4.73
2018-07-14T10:25:39.260Z,5.73
2018-07-14T10:28:07.424Z,4.83
2018-07-14T10:30:35.712Z,4.77
2018-07-14T10:33:04.043Z,5.40
2018-07-14T10:35:32.310Z,5.27
2018-07-14T10:38:00.586Z,5.17
2018-07-14T10:40:28.816Z,5.03
2018-07-14T10:42:57.063Z,4.50
2018-07-14T10:45:25.446Z,11.30
2018-07-14T10:47:53.704Z,9.00
2018-07-14T10:50:21.976Z,6.00
2018-07-14T10:52:50.219Z,5.40
2018-07-14T10:55:18.442Z,5.50
2018-07-14T10:57:46.755Z,6.20
2018-07-14T11:00:14.950Z,7.50
2018-07-14T11:02:43.233Z,5.63
2018-07-14T11:05:11.486Z,6.60
2018-07-14T11:07:39.490Z,7.63
2018-07-14T11:10:07.753Z,6.70
2018-07-14T11:12:36.041Z,7.10
2018-07-14T11:15:04.455Z,5.97
2018-07-14T11:17:32.693Z,6.70
2018-07-14T11:20:01.047Z,6.17
2018-07-14T11:22:29.259Z,7.10
2018-07-14T11:24:57.458Z,7.17
2018-07-14T11:27:25.725Z,9.63
2018-07-14T11:29:54.159Z,9.77
2018-07-14T11:32:22.531Z,9.63
2018-07-14T11:34:50.807Z,11.30
2018-07-14T11:37:19.072Z,10.30
2018-07-14T11:39:47.406Z,10.93
2018-07-14T11:42:15.774Z,11.00
2018-07-14T11:44:43.966Z,8.80
2018-07-14T11:47:12.227Z,7.43
2018-07-14T11:49:40.518Z,9.93
2018-07-14T11:52:08.890Z,8.57
2018-07-14T11:54:37.119Z,9.67
2018-07-14T11:57:05.400Z,5.20
2018-07-14T11:59:33.779Z,5.47
2018-07-14T12:02:02.078Z,6.30
2018-07-14T12:04:30.050Z,4.70
2018-07-14T12:06:58.295Z,6.23
2018-07-14T12:09:26.494Z,5.17
2018-07-14T12:11:54.773Z,5.57
2018-07-14T12:14:23.106Z,5.47
2018-07-14T12:16:51.387Z,9.43
2018-07-14T12:19:19.675Z,8.27
2018-07-14T12:21:47.962Z,4.40
2018-07-14T12:24:16.284Z,4.70
2018-07-14T12:26:44.721Z,6.47
2018-07-14T12:29:12.881Z,4.30
2018-07-14T12:31:41.137Z,4.37
2018-07-14T12:34:09.432Z,3.97
2018-07-14T12:36:38.015Z,4.83
2018-07-14T12:39:06.809Z,4.77
2018-07-14T12:41:35.110Z,3.97
2018-07-14T12:44:03.430Z,3.30
2018-07-14T12:46:31.690Z,3.03
2018-07-14T12:48:59.991Z,3.40
2018-07-14T12:51:28.210Z,3.07
2018-07-14T12:53:56.553Z,3.70
2018-07-14T12:56:24.747Z,5.93
2018-07-14T12:58:53.289Z,10.67
2018-07-14T13:01:21.511Z,5.10
2018-07-14T13:03:49.775Z,3.80
2018-07-14T13:06:18.023Z,2.73
2018-07-14T13:08:45.981Z,2.70
2018-07-14T13:11:14.205Z,2.43
2018-07-14T13:13:42.421Z,2.40
2018-07-14T13:16:10.669Z,3.40
2018-07-14T13:18:38.889Z,2.87
2018-07-14T13:21:07.407Z,2.70
2018-07-14T13:23:35.893Z,6.10
2018-07-14T13:26:04.082Z,3.80
2018-07-14T13:28:32.334Z,3.00
2018-07-14T13:31:00.579Z,2.80
2018-07-14T13:33:28.521Z,3.40
2018-07-14T13:35:56.721Z,3.30
2018-07-14T13:38:24.681Z,2.83
2018-07-14T13:40:52.911Z,2.67
2018-07-14T13:43:21.146Z,3.00
2018-07-14T13:45:49.370Z,3.03
2018-07-14T13:48:17.590Z,2.90
2018-07-14T13:50:46.047Z,3.40
2018-07-14T13:53:14.275Z,2.87
2018-07-14T13:55:42.526Z,4.30
2018-07-14T13:58:10.774Z,3.30
2018-07-14T14:00:38.981Z,2.87
2018-07-14T14:03:07.196Z,4.00
2018-07-14T14:05:35.506Z,3.43
2018-07-14T14:08:03.733Z,2.50
2018-07-14T14:10:31.945Z,2.60
2018-07-14T14:13:00.158Z,2.40
2018-07-14T14:15:28.373Z,2.80
2018-07-14T14:17:56.607Z,2.87
2018-07-14T14:20:24.818Z,2.73
2018-07-14T14:22:53.013Z,3.43
2018-07-14T14:25:21.238Z,2.80
2018-07-14T14:27:49.710Z,3.50
2018-07-14T14:30:17.994Z,3.30
2018-07-14T14:32:46.245Z,2.70
2018-07-14T14:35:14.462Z,3.67
2018-07-14T14:37:42.838Z,3.70
2018-07-14T14:40:11.017Z,3.57
2018-07-14T14:42:39.218Z,4.07
2018-07-14T14:45:07.734Z,3.90
2018-07-14T14:47:35.749Z,4.30
2018-07-14T14:50:04.016Z,4.20
2018-07-14T14:52:32.238Z,4.30
2018-07-14T14:55:00.517Z,4.40
2018-07-14T14:57:28.805Z,4.90
2018-07-14T14:59:57.125Z,4.50
2018-07-14T15:02:25.351Z,4.17
2018-07-14T15:04:53.487Z,5.90
2018-07-14T15:07:21.666Z,4.67
2018-07-14T15:09:49.942Z,4.60
2018-07-14T15:12:18.205Z,5.30
2018-07-14T15:14:46.432Z,4.67
2018-07-14T15:17:14.685Z,4.83
2018-07-14T15:19:42.925Z,5.57
2018-07-14T15:22:11.162Z,4.90
2018-07-14T15:24:39.112Z,6.20
2018-07-14T15:27:07.341Z,4.87
2018-07-14T15:29:35.564Z,5.60
2018-07-14T15:32:03.926Z,4.60
2018-07-14T15:34:32.203Z,4.50
2018-07-14T15:37:00.446Z,4.70
2018-07-14T15:39:28.641Z,5.20
2018-07-14T15:41:56.902Z,5.20
2018-07-14T15:44:25.158Z,5.30
2018-07-14T15:46:53.415Z,5.27
2018-07-14T15:49:21.365Z,5.20
2018-07-14T15:51:49.594Z,5.57
2018-07-14T15:54:17.968Z,6.97
2018-07-14T15:56:46.185Z,6.80
2018-07-14T15:59:14.413Z,10.83
2018-07-14T16:01:42.669Z,9.30
2018-07-14T16:04:10.899Z,10.30
2018-07-14T16:06:39.139Z,12.50
2018-07-14T16:09:07.689Z,9.93
2018-07-14T16:11:35.895Z,10.67
2018-07-14T16:14:04.109Z,14.07
2018-07-14T16:16:32.373Z,12.93
2018-07-14T16:19:00.727Z,11.90
2018-07-14T16:21:28.903Z,10.87
2018-07-14T16:23:57.158Z,13.87
2018-07-14T16:26:25.353Z,15.17
2018-07-14T16:28:53.570Z,14.70
2018-07-14T16:31:21.785Z,13.13
2018-07-14T16:33:50.030Z,12.00
2018-07-14T16:36:18.250Z,9.80
2018-07-14T16:38:46.666Z,10.50
2018-07-14T16:41:14.910Z,12.20
2018-07-14T16:43:43.446Z,10.90
2018-07-14T16:46:11.590Z,11.50
2018-07-14T16:48:39.852Z,13.60
2018-07-14T16:51:08.179Z,11.03
2018-07-14T16:53:36.185Z,9.73
2018-07-14T16:56:04.447Z,9.50
2018-07-14T16:58:32.712Z,9.40
2018-07-14T17:01:01.153Z,8.17
2018-07-14T17:03:29.357Z,7.90
2018-07-14T17:05:57.550Z,8.07
2018-07-14T17:08:25.724Z,7.90
2018-07-14T17:10:53.969Z,8.73
2018-07-14T17:13:22.190Z,9.10
2018-07-14T17:15:50.438Z,9.23
2018-07-14T17:18:18.397Z,9.63
2018-07-14T17:20:46.691Z,9.87
2018-07-14T17:23:15.029Z,9.57
2018-07-14T17:25:43.247Z,9.20
2018-07-14T17:28:11.437Z,9.27
2018-07-14T17:30:39.703Z,7.70
2018-07-14T17:33:07.910Z,9.70
2018-07-14T17:35:36.165Z,8.60
2018-07-14T17:38:04.405Z,9.20
2018-07-14T17:40:32.621Z,7.80
2018-07-14T17:43:00.840Z,9.80
2018-07-14T17:45:29.241Z,10.80
2018-07-14T17:47:57.534Z,10.63
2018-07-14T17:50:25.749Z,10.40
2018-07-14T17:52:54.007Z,9.77
2018-07-14T17:55:22.230Z,9.53
2018-07-14T17:57:50.450Z,8.80
2018-07-14T18:00:18.658Z,10.20
2018-07-14T18:02:46.853Z,9.50
2018-07-14T18:05:14.879Z,10.03
2018-07-14T18:07:43.074Z,10.97
2018-07-14T18:10:11.313Z,10.20
2018-07-14T18:12:39.530Z,10.33
2018-07-14T18:15:07.730Z,11.00
2018-07-14T18:17:35.950Z,10.77
2018-07-14T18:20:04.161Z,9.33
2018-07-14T18:22:32.390Z,11.23
2018-07-14T18:25:00.588Z,10.83
2018-07-14T18:27:28.840Z,11.57
2018-07-14T18:29:57.110Z,12.07
2018-07-14T18:32:25.334Z,11.30
2018-07-14T18:34:53.575Z,11.80
2018-07-14T18:37:21.890Z,11.30
2018-07-14T18:39:50.095Z,11.80
2018-07-14T18:42:18.322Z,11.67
2018-07-14T18:44:46.542Z,11.30
2018-07-14T18:47:14.773Z,12.93
2018-07-14T18:49:42.950Z,16.00
2018-07-14T18:52:11.451Z,13.17
2018-07-14T18:54:39.620Z,12.47
2018-07-14T18:57:08.665Z,12.43
2018-07-14T18:59:36.904Z,12.53
2018-07-14T19:02:05.129Z,13.30
2018-07-14T19:04:33.391Z,12.30
2018-07-14T19:07:01.625Z,12.07
2018-07-14T19:09:29.630Z,11.80
2018-07-14T19:11:57.796Z,11.50
2018-07-14T19:14:26.193Z,11.30
2018-07-14T19:16:54.425Z,12.50
2018-07-14T19:19:22.645Z,12.63
2018-07-14T19:21:50.877Z,12.93
2018-07-14T19:24:19.112Z,13.80
2018-07-14T19:26:47.333Z,13.07
2018-07-14T19:29:15.565Z,12.83
2018-07-14T19:31:43.762Z,14.37
2018-07-14T19:34:11.998Z,14.00
2018-07-14T19:36:40.459Z,13.60
2018-07-14T19:39:08.662Z,14.50
2018-07-14T19:41:36.858Z,14.40
2018-07-14T19:44:05.095Z,16.60
2018-07-14T19:46:33.313Z,15.83
2018-07-14T19:49:01.529Z,15.20
2018-07-14T19:51:29.720Z,14.73
2018-07-14T19:53:57.937Z,15.60
2018-07-14T19:56:26.187Z,15.10
2018-07-14T19:58:54.617Z,14.83
2018-07-14T20:01:22.823Z,15.30
2018-07-14T20:03:51.096Z,15.37
2018-07-14T20:06:19.501Z,17.30
2018-07-14T20:08:47.606Z,17.33
2018-07-14T20:11:15.835Z,17.33
2018-07-14T20:13:44.046Z,17.13
2018-07-14T20:16:12.240Z,14.90
2018-07-14T20:18:40.229Z,14.83
2018-07-14T20:21:08.442Z,15.27
2018-07-14T20:23:36.660Z,14.23
2018-07-14T20:26:05.024Z,14.30
2018-07-14T20:28:33.274Z,13.20
2018-07-14T20:31:01.565Z,14.00
2018-07-14T20:33:29.805Z,14.60
2018-07-14T20:35:58.002Z,14.20
2018-07-14T20:38:26.193Z,13.80
2018-07-14T20:40:54.429Z,14.10
2018-07-14T20:43:22.948Z,12.90
2018-07-14T20:45:51.166Z,13.13
2018-07-14T20:48:19.399Z,13.17
2018-07-14T20:50:47.614Z,14.23
2018-07-14T20:53:15.833Z,15.87
2018-07-14T20:55:44.080Z,14.17
2018-07-14T20:58:12.313Z,16.03
2018-07-14T21:00:40.533Z,15.10
2018-07-14T21:03:08.797Z,15.73
2018-07-14T21:05:37.161Z,15.53
2018-07-14T21:08:05.638Z,16.27
2018-07-14T21:10:33.889Z,18.40
2018-07-14T21:13:02.131Z,17.77
2018-07-14T21:15:30.373Z,14.50
2018-07-14T21:17:58.583Z,15.03
2018-07-14T21:20:26.813Z,16.03
2018-07-14T21:22:55.056Z,13.27
2018-07-14T21:25:23.281Z,14.73
2018-07-14T21:27:51.638Z,13.83
2018-07-14T21:30:19.893Z,14.10
2018-07-14T21:32:48.124Z,13.67
2018-07-14T21:35:16.334Z,12.63
2018-07-14T21:37:44.562Z,14.30
2018-07-14T21:40:12.845Z,14.50
2018-07-14T21:42:40.977Z,14.43
2018-07-14T21:45:09.202Z,15.30
2018-07-14T21:47:37.429Z,14.10
2018-07-14T21:50:05.652Z,13.83
2018-07-14T21:52:33.858Z,14.60
2018-07-14T21:55:02.155Z,15.33
2018-07-14T21:57:30.418Z,14.83
2018-07-14T21:59:58.634Z,14.40
2018-07-14T22:02:26.856Z,14.53
2018-07-14T22:04:55.061Z,14.40
2018-07-14T22:07:23.076Z,15.97
2018-07-14T22:09:51.245Z,18.00
2018-07-14T22:12:19.649Z,15.87
2018-07-14T22:14:47.878Z,14.87
2018-07-14T22:17:16.102Z,17.30
2018-07-14T22:19:44.350Z,16.57
2018-07-14T22:22:12.608Z,16.50
2018-07-14T22:24:40.819Z,17.90
2018-07-14T22:27:09.105Z,17.67
2018-07-14T22:29:37.352Z,20.00
2018-07-14T22:32:05.586Z,19.10
2018-07-14T22:34:33.867Z,16.83
2018-07-14T22:37:02.090Z,16.43
2018-07-14T22:39:30.321Z,17.40
2018-07-14T22:41:58.542Z,15.10
2018-07-14T22:44:26.757Z,16.00
2018-07-14T22:46:54.982Z,16.57
2018-07-14T22:49:23.198Z,16.73
2018-07-14T22:51:51.430Z,18.33
2018-07-14T22:54:19.632Z,17.47
2018-07-14T22:56:48.024Z,17.47
2018-07-14T22:59:16.234Z,17.47
2018-07-14T23:01:44.465Z,19.33
2018-07-14T23:04:12.659Z,19.00
2018-07-14T23:06:40.866Z,16.63
2018-07-14T23:09:09.100Z,15.33
2018-07-14T23:11:37.313Z,16.10
2018-07-14T23:14:05.539Z,16.07
2018-07-14T23:16:33.746Z,17.07
2018-07-14T23:19:01.769Z,16.53
2018-07-14T23:21:29.991Z,16.70
2018-07-14T23:23:58.250Z,16.40
2018-07-14T23:26:26.466Z,16.70
2018-07-14T23:28:54.706Z,17.77
2018-07-14T23:31:22.914Z,17.87
2018-07-14T23:33:51.138Z,17.90
2018-07-14T23:36:19.355Z,18.40
2018-07-14T23:38:47.569Z,19.33
2018-07-14T23:41:16.116Z,20.97
2018-07-14T23:43:44.394Z,19.93
2018-07-14T23:46:12.338Z,20.40
2018-07-14T23:48:40.557Z,19.27
2018-07-14T23:51:08.786Z,20.43
2018-07-14T23:53:37.010Z,21.63
2018-07-14T23:56:05.440Z,21.17
2018-07-14T23:58:33.641Z,20.90
